sensor_id;sensor_type;location;lat;lon;timestamp;P1;durP1;ratioP1;P2;durP2;ratioP2
33104;SDS011;19476;51.448;6.674;2022-12-18T00:01:36;9.43;;;4.53;;
33104;SDS011;19476;51.448;6.674;2022-12-18T00:04:03;10.00;;;5.15;;
33104;SDS011;19476;51.448;6.674;2022-12-18T00:17:03;11.50;;;4.63;;
33104;SDS011;19476;51.448;6.674;2022-12-18T00:29:09;10.35;;;5.22;;
33104;SDS011;19476;51.448;6.674;2022-12-18T00:31:38;9.98;;;4.57;;
33104;SDS011;19476;51.448;6.674;2022-12-18T00:43:41;9.93;;;4.85;;
33104;SDS011;19476;51.448;6.674;2022-12-18T00:49:26;9.52;;;4.25;;
33104;SDS011;19476;51.448;6.674;2022-12-18T00:58:36;11.20;;;4.90;;
33104;SDS011;19476;51.448;6.674;2022-12-18T01:01:03;11.10;;;5.20;;
33104;SDS011;19476;51.448;6.674;2022-12-18T01:03:29;10.75;;;4.85;;
33104;SDS011;19476;51.448;6.674;2022-12-18T01:05:55;9.63;;;4.40;;
33104;SDS011;19476;51.448;6.674;2022-12-18T01:08:22;10.20;;;4.45;;
33104;SDS011;19476;51.448;6.674;2022-12-18T01:10:47;11.48;;;5.03;;
33104;SDS011;19476;51.448;6.674;2022-12-18T01:13:13;11.65;;;4.72;;
33104;SDS011;19476;51.448;6.674;2022-12-18T01:15:39;11.13;;;4.88;;
33104;SDS011;19476;51.448;6.674;2022-12-18T01:18:05;12.05;;;5.45;;
33104;SDS011;19476;51.448;6.674;2022-12-18T01:20:32;9.48;;;4.93;;
33104;SDS011;19476;51.448;6.674;2022-12-18T01:22:57;10.48;;;4.80;;
33104;SDS011;19476;51.448;6.674;2022-12-18T01:25:23;10.07;;;5.00;;
33104;SDS011;19476;51.448;6.674;2022-12-18T01:27:49;9.20;;;4.03;;
33104;SDS011;19476;51.448;6.674;2022-12-18T01:30:15;10.65;;;4.88;;
33104;SDS011;19476;51.448;6.674;2022-12-18T01:32:40;10.52;;;4.50;;
33104;SDS011;19476;51.448;6.674;2022-12-18T01:35:06;11.23;;;4.85;;
33104;SDS011;19476;51.448;6.674;2022-12-18T01:37:33;9.35;;;4.82;;
33104;SDS011;19476;51.448;6.674;2022-12-18T01:39:58;9.13;;;4.65;;
33104;SDS011;19476;51.448;6.674;2022-12-18T01:42:24;8.75;;;4.32;;
33104;SDS011;19476;51.448;6.674;2022-12-18T01:47:26;9.75;;;4.50;;
33104;SDS011;19476;51.448;6.674;2022-12-18T01:49:58;10.10;;;4.75;;
33104;SDS011;19476;51.448;6.674;2022-12-18T01:52:32;10.68;;;4.68;;
33104;SDS011;19476;51.448;6.674;2022-12-18T01:54:58;12.10;;;5.22;;
33104;SDS011;19476;51.448;6.674;2022-12-18T01:57:26;10.57;;;4.97;;
33104;SDS011;19476;51.448;6.674;2022-12-18T01:59:54;8.82;;;4.18;;
33104;SDS011;19476;51.448;6.674;2022-12-18T02:02:24;8.48;;;3.97;;
33104;SDS011;19476;51.448;6.674;2022-12-18T02:04:53;12.77;;;4.75;;
33104;SDS011;19476;51.448;6.674;2022-12-18T02:07:24;9.98;;;5.15;;
33104;SDS011;19476;51.448;6.674;2022-12-18T02:10:06;10.43;;;4.55;;
33104;SDS011;19476;51.448;6.674;2022-12-18T02:18:46;9.02;;;4.50;;
33104;SDS011;19476;51.448;6.674;2022-12-18T02:26:36;10.75;;;4.82;;
33104;SDS011;19476;51.448;6.674;2022-12-18T02:29:08;10.90;;;5.00;;
33104;SDS011;19476;51.448;6.674;2022-12-18T02:34:11;8.68;;;4.32;;
33104;SDS011;19476;51.448;6.674;2022-12-18T02:36:40;11.65;;;5.80;;
33104;SDS011;19476;51.448;6.674;2022-12-18T02:39:07;10.50;;;4.90;;
33104;SDS011;19476;51.448;6.674;2022-12-18T02:41:35;11.07;;;5.32;;
33104;SDS011;19476;51.448;6.674;2022-12-18T02:44:06;10.57;;;5.25;;
33104;SDS011;19476;51.448;6.674;2022-12-18T02:49:12;9.48;;;4.35;;
33104;SDS011;19476;51.448;6.674;2022-12-18T02:52:05;9.63;;;4.40;;
33104;SDS011;19476;51.448;6.674;2022-12-18T02:59:41;9.82;;;4.53;;
33104;SDS011;19476;51.448;6.674;2022-12-18T03:02:23;8.57;;;4.18;;
33104;SDS011;19476;51.448;6.674;2022-12-18T03:05:18;10.05;;;4.82;;
33104;SDS011;19476;51.448;6.674;2022-12-18T03:07:56;11.35;;;4.80;;
33104;SDS011;19476;51.448;6.674;2022-12-18T03:10:27;9.40;;;4.75;;
33104;SDS011;19476;51.448;6.674;2022-12-18T03:12:59;10.07;;;5.00;;
33104;SDS011;19476;51.448;6.674;2022-12-18T03:15:42;10.52;;;4.53;;
33104;SDS011;19476;51.448;6.674;2022-12-18T03:18:17;10.60;;;4.75;;
33104;SDS011;19476;51.448;6.674;2022-12-18T03:20:50;9.18;;;4.50;;
33104;SDS011;19476;51.448;6.674;2022-12-18T03:23:21;9.80;;;4.70;;
33104;SDS011;19476;51.448;6.674;2022-12-18T03:25:51;9.18;;;4.68;;
33104;SDS011;19476;51.448;6.674;2022-12-18T03:28:22;9.05;;;4.63;;
33104;SDS011;19476;51.448;6.674;2022-12-18T03:30:53;8.85;;;4.28;;
33104;SDS011;19476;51.448;6.674;2022-12-18T03:33:34;10.93;;;4.47;;
33104;SDS011;19476;51.448;6.674;2022-12-18T03:36:15;10.52;;;4.60;;
33104;SDS011;19476;51.448;6.674;2022-12-18T03:38:42;10.38;;;4.50;;
33104;SDS011;19476;51.448;6.674;2022-12-18T03:41:14;9.18;;;4.40;;
33104;SDS011;19476;51.448;6.674;2022-12-18T03:43:49;11.50;;;5.38;;
33104;SDS011;19476;51.448;6.674;2022-12-18T03:49:04;10.77;;;4.22;;
33104;SDS011;19476;51.448;6.674;2022-12-18T03:51:52;10.30;;;4.95;;
33104;SDS011;19476;51.448;6.674;2022-12-18T03:54:24;10.65;;;4.43;;
33104;SDS011;19476;51.448;6.674;2022-12-18T03:56:58;12.07;;;4.72;;
33104;SDS011;19476;51.448;6.674;2022-12-18T03:59:28;8.43;;;4.22;;
33104;SDS011;19476;51.448;6.674;2022-12-18T04:01:55;8.65;;;4.13;;
33104;SDS011;19476;51.448;6.674;2022-12-18T04:04:24;10.25;;;4.65;;
33104;SDS011;19476;51.448;6.674;2022-12-18T04:06:51;9.82;;;4.70;;
33104;SDS011;19476;51.448;6.674;2022-12-18T04:09:17;10.00;;;4.78;;
33104;SDS011;19476;51.448;6.674;2022-12-18T04:11:44;9.07;;;4.47;;
33104;SDS011;19476;51.448;6.674;2022-12-18T04:14:11;10.45;;;4.60;;
33104;SDS011;19476;51.448;6.674;2022-12-18T04:16:38;8.27;;;3.75;;
33104;SDS011;19476;51.448;6.674;2022-12-18T04:19:03;8.02;;;4.05;;
33104;SDS011;19476;51.448;6.674;2022-12-18T04:21:29;10.25;;;3.97;;
33104;SDS011;19476;51.448;6.674;2022-12-18T04:23:55;9.60;;;4.22;;
33104;SDS011;19476;51.448;6.674;2022-12-18T04:26:21;9.07;;;3.90;;
33104;SDS011;19476;51.448;6.674;2022-12-18T04:28:47;9.02;;;4.00;;
33104;SDS011;19476;51.448;6.674;2022-12-18T04:31:13;9.43;;;4.47;;
33104;SDS011;19476;51.448;6.674;2022-12-18T04:33:39;7.88;;;4.00;;
33104;SDS011;19476;51.448;6.674;2022-12-18T04:36:05;8.40;;;3.78;;
33104;SDS011;19476;51.448;6.674;2022-12-18T04:38:31;8.80;;;3.95;;
33104;SDS011;19476;51.448;6.674;2022-12-18T04:40:56;6.90;;;3.60;;
33104;SDS011;19476;51.448;6.674;2022-12-18T04:43:22;7.53;;;3.40;;
33104;SDS011;19476;51.448;6.674;2022-12-18T04:45:48;9.00;;;4.07;;
33104;SDS011;19476;51.448;6.674;2022-12-18T04:48:14;8.38;;;3.40;;
33104;SDS011;19476;51.448;6.674;2022-12-18T04:50:39;7.88;;;3.55;;
33104;SDS011;19476;51.448;6.674;2022-12-18T04:53:05;8.98;;;4.20;;
33104;SDS011;19476;51.448;6.674;2022-12-18T04:55:31;8.73;;;3.78;;
33104;SDS011;19476;51.448;6.674;2022-12-18T04:57:56;7.55;;;3.47;;
33104;SDS011;19476;51.448;6.674;2022-12-18T05:00:22;9.35;;;3.97;;
33104;SDS011;19476;51.448;6.674;2022-12-18T05:02:48;8.75;;;3.90;;
33104;SDS011;19476;51.448;6.674;2022-12-18T05:05:14;8.50;;;4.10;;
33104;SDS011;19476;51.448;6.674;2022-12-18T05:07:40;8.10;;;3.40;;
33104;SDS011;19476;51.448;6.674;2022-12-18T05:10:06;8.00;;;4.15;;
33104;SDS011;19476;51.448;6.674;2022-12-18T05:12:32;7.72;;;3.40;;
33104;SDS011;19476;51.448;6.674;2022-12-18T05:14:58;7.88;;;3.28;;
33104;SDS011;19476;51.448;6.674;2022-12-18T05:17:23;7.45;;;3.22;;
33104;SDS011;19476;51.448;6.674;2022-12-18T05:19:49;6.60;;;3.20;;
33104;SDS011;19476;51.448;6.674;2022-12-18T05:22:15;8.35;;;3.38;;
33104;SDS011;19476;51.448;6.674;2022-12-18T05:24:41;7.90;;;3.60;;
33104;SDS011;19476;51.448;6.674;2022-12-18T05:27:06;8.77;;;3.92;;
33104;SDS011;19476;51.448;6.674;2022-12-18T05:29:32;8.45;;;4.32;;
33104;SDS011;19476;51.448;6.674;2022-12-18T05:31:58;8.02;;;3.70;;
33104;SDS011;19476;51.448;6.674;2022-12-18T05:34:24;6.70;;;3.40;;
33104;SDS011;19476;51.448;6.674;2022-12-18T05:36:49;7.30;;;3.28;;
33104;SDS011;19476;51.448;6.674;2022-12-18T05:39:15;7.00;;;3.45;;
33104;SDS011;19476;51.448;6.674;2022-12-18T05:41:41;7.35;;;3.10;;
33104;SDS011;19476;51.448;6.674;2022-12-18T05:44:06;6.43;;;2.97;;
33104;SDS011;19476;51.448;6.674;2022-12-18T05:46:32;7.20;;;4.03;;
33104;SDS011;19476;51.448;6.674;2022-12-18T05:49:01;7.13;;;2.88;;
33104;SDS011;19476;51.448;6.674;2022-12-18T05:51:27;9.38;;;4.18;;
33104;SDS011;19476;51.448;6.674;2022-12-18T05:53:53;7.05;;;3.10;;
33104;SDS011;19476;51.448;6.674;2022-12-18T05:56:19;7.75;;;3.67;;
33104;SDS011;19476;51.448;6.674;2022-12-18T05:58:46;7.07;;;3.22;;
33104;SDS011;19476;51.448;6.674;2022-12-18T06:01:13;6.72;;;3.10;;
33104;SDS011;19476;51.448;6.674;2022-12-18T06:03:41;8.30;;;3.30;;
33104;SDS011;19476;51.448;6.674;2022-12-18T06:08:43;7.03;;;2.92;;
33104;SDS011;19476;51.448;6.674;2022-12-18T06:11:09;7.55;;;3.05;;
33104;SDS011;19476;51.448;6.674;2022-12-18T06:13:36;8.00;;;3.13;;
33104;SDS011;19476;51.448;6.674;2022-12-18T06:16:05;7.03;;;3.17;;
33104;SDS011;19476;51.448;6.674;2022-12-18T06:18:31;7.60;;;3.27;;
33104;SDS011;19476;51.448;6.674;2022-12-18T06:20:58;6.55;;;2.75;;
33104;SDS011;19476;51.448;6.674;2022-12-18T06:23:25;7.32;;;3.13;;
33104;SDS011;19476;51.448;6.674;2022-12-18T06:25:51;8.20;;;3.50;;
33104;SDS011;19476;51.448;6.674;2022-12-18T06:28:17;9.50;;;3.70;;
33104;SDS011;19476;51.448;6.674;2022-12-18T06:30:43;8.77;;;3.92;;
33104;SDS011;19476;51.448;6.674;2022-12-18T06:33:10;7.25;;;3.80;;
33104;SDS011;19476;51.448;6.674;2022-12-18T06:35:35;9.60;;;3.70;;
33104;SDS011;19476;51.448;6.674;2022-12-18T06:38:02;9.55;;;4.15;;
33104;SDS011;19476;51.448;6.674;2022-12-18T06:40:28;10.60;;;4.32;;
33104;SDS011;19476;51.448;6.674;2022-12-18T06:42:54;10.23;;;4.10;;
33104;SDS011;19476;51.448;6.674;2022-12-18T06:45:20;8.00;;;3.55;;
33104;SDS011;19476;51.448;6.674;2022-12-18T06:47:45;8.50;;;3.53;;
33104;SDS011;19476;51.448;6.674;2022-12-18T06:50:11;8.65;;;3.30;;
33104;SDS011;19476;51.448;6.674;2022-12-18T06:52:38;7.55;;;3.50;;
33104;SDS011;19476;51.448;6.674;2022-12-18T06:55:05;7.45;;;3.15;;
33104;SDS011;19476;51.448;6.674;2022-12-18T06:57:34;9.63;;;3.45;;
33104;SDS011;19476;51.448;6.674;2022-12-18T07:00:00;8.23;;;3.25;;
33104;SDS011;19476;51.448;6.674;2022-12-18T07:02:28;7.97;;;3.50;;
33104;SDS011;19476;51.448;6.674;2022-12-18T07:04:53;8.00;;;3.45;;
33104;SDS011;19476;51.448;6.674;2022-12-18T07:07:19;7.93;;;3.88;;
33104;SDS011;19476;51.448;6.674;2022-12-18T07:09:45;7.63;;;3.55;;
33104;SDS011;19476;51.448;6.674;2022-12-18T07:12:10;8.63;;;3.83;;
33104;SDS011;19476;51.448;6.674;2022-12-18T07:14:36;7.35;;;3.50;;
33104;SDS011;19476;51.448;6.674;2022-12-18T07:17:02;7.20;;;3.47;;
33104;SDS011;19476;51.448;6.674;2022-12-18T07:19:28;8.23;;;3.45;;
33104;SDS011;19476;51.448;6.674;2022-12-18T07:21:54;7.43;;;3.83;;
33104;SDS011;19476;51.448;6.674;2022-12-18T07:24:20;8.18;;;3.97;;
33104;SDS011;19476;51.448;6.674;2022-12-18T07:26:46;8.27;;;3.55;;
33104;SDS011;19476;51.448;6.674;2022-12-18T07:29:12;10.95;;;3.88;;
33104;SDS011;19476;51.448;6.674;2022-12-18T07:31:38;7.80;;;3.42;;
33104;SDS011;19476;51.448;6.674;2022-12-18T07:34:03;8.85;;;3.95;;
33104;SDS011;19476;51.448;6.674;2022-12-18T07:36:29;7.97;;;3.70;;
33104;SDS011;19476;51.448;6.674;2022-12-18T07:38:55;7.65;;;3.90;;
33104;SDS011;19476;51.448;6.674;2022-12-18T07:41:21;7.63;;;3.55;;
33104;SDS011;19476;51.448;6.674;2022-12-18T07:43:47;8.15;;;3.85;;
33104;SDS011;19476;51.448;6.674;2022-12-18T07:46:14;7.28;;;3.17;;
33104;SDS011;19476;51.448;6.674;2022-12-18T07:48:43;8.93;;;3.50;;
33104;SDS011;19476;51.448;6.674;2022-12-18T07:51:10;9.43;;;3.55;;
33104;SDS011;19476;51.448;6.674;2022-12-18T07:53:38;7.95;;;3.90;;
33104;SDS011;19476;51.448;6.674;2022-12-18T07:56:05;8.45;;;3.75;;
33104;SDS011;19476;51.448;6.674;2022-12-18T07:58:35;9.73;;;4.20;;
33104;SDS011;19476;51.448;6.674;2022-12-18T08:04:22;9.68;;;4.03;;
33104;SDS011;19476;51.448;6.674;2022-12-18T08:06:48;8.57;;;4.18;;
33104;SDS011;19476;51.448;6.674;2022-12-18T08:09:14;9.23;;;4.13;;
33104;SDS011;19476;51.448;6.674;2022-12-18T08:11:40;8.95;;;4.43;;
33104;SDS011;19476;51.448;6.674;2022-12-18T08:14:06;8.25;;;4.15;;
33104;SDS011;19476;51.448;6.674;2022-12-18T08:16:32;8.85;;;4.28;;
33104;SDS011;19476;51.448;6.674;2022-12-18T08:18:58;10.25;;;3.90;;
33104;SDS011;19476;51.448;6.674;2022-12-18T08:21:28;9.45;;;4.07;;
33104;SDS011;19476;51.448;6.674;2022-12-18T08:23:56;9.88;;;4.30;;
33104;SDS011;19476;51.448;6.674;2022-12-18T08:26:27;11.18;;;4.63;;
33104;SDS011;19476;51.448;6.674;2022-12-18T08:28:55;10.20;;;4.18;;
33104;SDS011;19476;51.448;6.674;2022-12-18T08:31:22;10.07;;;4.40;;
33104;SDS011;19476;51.448;6.674;2022-12-18T08:33:49;9.27;;;4.28;;
33104;SDS011;19476;51.448;6.674;2022-12-18T08:36:16;10.30;;;4.68;;
33104;SDS011;19476;51.448;6.674;2022-12-18T08:38:42;9.23;;;4.50;;
33104;SDS011;19476;51.448;6.674;2022-12-18T08:41:09;10.48;;;4.93;;
33104;SDS011;19476;51.448;6.674;2022-12-18T08:43:37;9.27;;;4.70;;
33104;SDS011;19476;51.448;6.674;2022-12-18T08:46:21;10.77;;;4.80;;
33104;SDS011;19476;51.448;6.674;2022-12-18T08:48:52;10.00;;;4.75;;
33104;SDS011;19476;51.448;6.674;2022-12-18T08:51:20;11.45;;;4.97;;
33104;SDS011;19476;51.448;6.674;2022-12-18T08:53:46;8.93;;;4.10;;
33104;SDS011;19476;51.448;6.674;2022-12-18T08:56:12;9.07;;;4.05;;
33104;SDS011;19476;51.448;6.674;2022-12-18T08:58:39;7.13;;;3.70;;
33104;SDS011;19476;51.448;6.674;2022-12-18T09:01:06;8.73;;;4.30;;
33104;SDS011;19476;51.448;6.674;2022-12-18T09:03:36;10.50;;;5.05;;
33104;SDS011;19476;51.448;6.674;2022-12-18T09:06:03;8.68;;;4.20;;
33104;SDS011;19476;51.448;6.674;2022-12-18T09:08:30;9.15;;;4.30;;
33104;SDS011;19476;51.448;6.674;2022-12-18T09:11:02;8.68;;;4.57;;
33104;SDS011;19476;51.448;6.674;2022-12-18T09:13:28;12.02;;;5.07;;
33104;SDS011;19476;51.448;6.674;2022-12-18T09:15:54;10.32;;;4.60;;
33104;SDS011;19476;51.448;6.674;2022-12-18T09:18:21;8.93;;;4.22;;
33104;SDS011;19476;51.448;6.674;2022-12-18T09:20:48;10.57;;;4.60;;
33104;SDS011;19476;51.448;6.674;2022-12-18T09:23:15;9.80;;;4.60;;
33104;SDS011;19476;51.448;6.674;2022-12-18T09:25:41;9.20;;;4.50;;
33104;SDS011;19476;51.448;6.674;2022-12-18T09:28:11;9.80;;;4.22;;
33104;SDS011;19476;51.448;6.674;2022-12-18T09:30:43;8.95;;;4.63;;
33104;SDS011;19476;51.448;6.674;2022-12-18T09:33:11;10.75;;;4.88;;
33104;SDS011;19476;51.448;6.674;2022-12-18T09:35:37;11.90;;;5.40;;
33104;SDS011;19476;51.448;6.674;2022-12-18T09:38:03;7.93;;;3.95;;
33104;SDS011;19476;51.448;6.674;2022-12-18T09:40:32;10.57;;;4.80;;
33104;SDS011;19476;51.448;6.674;2022-12-18T09:43:04;9.63;;;4.30;;
33104;SDS011;19476;51.448;6.674;2022-12-18T09:45:38;10.68;;;4.20;;
33104;SDS011;19476;51.448;6.674;2022-12-18T09:48:21;9.93;;;4.53;;
33104;SDS011;19476;51.448;6.674;2022-12-18T09:50:51;9.90;;;4.82;;
33104;SDS011;19476;51.448;6.674;2022-12-18T09:53:24;12.50;;;4.53;;
33104;SDS011;19476;51.448;6.674;2022-12-18T09:55:54;10.27;;;4.80;;
33104;SDS011;19476;51.448;6.674;2022-12-18T09:58:26;10.93;;;5.00;;
33104;SDS011;19476;51.448;6.674;2022-12-18T10:00:54;11.23;;;4.80;;
33104;SDS011;19476;51.448;6.674;2022-12-18T10:03:20;9.02;;;4.63;;
33104;SDS011;19476;51.448;6.674;2022-12-18T10:09:02;11.10;;;4.60;;
33104;SDS011;19476;51.448;6.674;2022-12-18T10:14:19;10.68;;;5.13;;
33104;SDS011;19476;51.448;6.674;2022-12-18T10:19:47;9.93;;;4.55;;
33104;SDS011;19476;51.448;6.674;2022-12-18T10:22:22;9.52;;;4.85;;
33104;SDS011;19476;51.448;6.674;2022-12-18T10:25:14;11.35;;;4.97;;
33104;SDS011;19476;51.448;6.674;2022-12-18T10:27:51;11.73;;;5.53;;
33104;SDS011;19476;51.448;6.674;2022-12-18T10:30:22;10.65;;;5.38;;
33104;SDS011;19476;51.448;6.674;2022-12-18T10:32:49;12.13;;;6.20;;
33104;SDS011;19476;51.448;6.674;2022-12-18T10:35:22;11.23;;;5.50;;
33104;SDS011;19476;51.448;6.674;2022-12-18T10:43:32;11.13;;;5.00;;
33104;SDS011;19476;51.448;6.674;2022-12-18T10:48:30;10.73;;;5.40;;
33104;SDS011;19476;51.448;6.674;2022-12-18T10:50:58;12.93;;;5.43;;
33104;SDS011;19476;51.448;6.674;2022-12-18T10:53:26;11.25;;;5.47;;
33104;SDS011;19476;51.448;6.674;2022-12-18T10:55:56;11.32;;;5.32;;
33104;SDS011;19476;51.448;6.674;2022-12-18T11:04:16;11.95;;;6.15;;
33104;SDS011;19476;51.448;6.674;2022-12-18T11:06:16;12.70;;;6.22;;
33104;SDS011;19476;51.448;6.674;2022-12-18T11:11:48;13.40;;;6.22;;
33104;SDS011;19476;51.448;6.674;2022-12-18T11:14:22;12.43;;;5.85;;
33104;SDS011;19476;51.448;6.674;2022-12-18T11:16:51;11.93;;;5.80;;
33104;SDS011;19476;51.448;6.674;2022-12-18T11:21:53;10.23;;;5.28;;
33104;SDS011;19476;51.448;6.674;2022-12-18T11:24:20;9.73;;;5.43;;
33104;SDS011;19476;51.448;6.674;2022-12-18T11:26:46;12.20;;;5.78;;
33104;SDS011;19476;51.448;6.674;2022-12-18T11:29:22;12.38;;;5.45;;
33104;SDS011;19476;51.448;6.674;2022-12-18T11:31:59;11.05;;;5.55;;
33104;SDS011;19476;51.448;6.674;2022-12-18T11:35:16;11.02;;;5.45;;
33104;SDS011;19476;51.448;6.674;2022-12-18T11:37:55;11.77;;;5.72;;
33104;SDS011;19476;51.448;6.674;2022-12-18T11:40:27;10.13;;;5.30;;
33104;SDS011;19476;51.448;6.674;2022-12-18T11:43:01;11.63;;;5.50;;
33104;SDS011;19476;51.448;6.674;2022-12-18T11:45:33;12.00;;;6.10;;
33104;SDS011;19476;51.448;6.674;2022-12-18T11:48:06;12.48;;;5.80;;
33104;SDS011;19476;51.448;6.674;2022-12-18T11:53:17;10.75;;;5.43;;
33104;SDS011;19476;51.448;6.674;2022-12-18T12:01:01;10.90;;;5.40;;
33104;SDS011;19476;51.448;6.674;2022-12-18T12:06:26;13.20;;;5.43;;
33104;SDS011;19476;51.448;6.674;2022-12-18T12:09:27;12.02;;;5.15;;
33104;SDS011;19476;51.448;6.674;2022-12-18T12:17:34;12.73;;;6.05;;
33104;SDS011;19476;51.448;6.674;2022-12-18T12:23:40;11.63;;;5.72;;
33104;SDS011;19476;51.448;6.674;2022-12-18T12:29:31;10.82;;;5.93;;
33104;SDS011;19476;51.448;6.674;2022-12-18T12:34:49;12.80;;;6.85;;
33104;SDS011;19476;51.448;6.674;2022-12-18T12:40:13;13.23;;;6.55;;
33104;SDS011;19476;51.448;6.674;2022-12-18T12:42:47;10.30;;;5.85;;
33104;SDS011;19476;51.448;6.674;2022-12-18T12:45:48;13.13;;;6.20;;
33104;SDS011;19476;51.448;6.674;2022-12-18T12:50:58;13.40;;;7.07;;
33104;SDS011;19476;51.448;6.674;2022-12-18T12:53:33;12.10;;;6.60;;
33104;SDS011;19476;51.448;6.674;2022-12-18T12:56:02;14.52;;;6.70;;
33104;SDS011;19476;51.448;6.674;2022-12-18T12:58:41;16.13;;;7.05;;
33104;SDS011;19476;51.448;6.674;2022-12-18T13:01:36;13.70;;;6.43;;
33104;SDS011;19476;51.448;6.674;2022-12-18T13:15:24;14.27;;;7.75;;
33104;SDS011;19476;51.448;6.674;2022-12-18T13:18:05;16.30;;;8.50;;
33104;SDS011;19476;51.448;6.674;2022-12-18T13:20:35;16.00;;;8.32;;
33104;SDS011;19476;51.448;6.674;2022-12-18T13:23:44;15.65;;;8.00;;
33104;SDS011;19476;51.448;6.674;2022-12-18T13:25:58;16.92;;;8.35;;
33104;SDS011;19476;51.448;6.674;2022-12-18T13:39:56;21.08;;;10.70;;
33104;SDS011;19476;51.448;6.674;2022-12-18T13:42:31;15.48;;;7.80;;
33104;SDS011;19476;51.448;6.674;2022-12-18T13:45:37;19.95;;;9.55;;
33104;SDS011;19476;51.448;6.674;2022-12-18T13:48:13;18.05;;;8.90;;
33104;SDS011;19476;51.448;6.674;2022-12-18T13:50:55;18.30;;;8.98;;
33104;SDS011;19476;51.448;6.674;2022-12-18T13:53:34;15.95;;;8.32;;
33104;SDS011;19476;51.448;6.674;2022-12-18T13:56:09;18.25;;;9.32;;
33104;SDS011;19476;51.448;6.674;2022-12-18T13:58:39;17.55;;;8.63;;
33104;SDS011;19476;51.448;6.674;2022-12-18T14:01:14;16.75;;;8.57;;
33104;SDS011;19476;51.448;6.674;2022-12-18T14:03:49;16.27;;;8.52;;
33104;SDS011;19476;51.448;6.674;2022-12-18T14:08:45;16.67;;;8.38;;
33104;SDS011;19476;51.448;6.674;2022-12-18T14:11:19;14.65;;;8.60;;
33104;SDS011;19476;51.448;6.674;2022-12-18T14:13:47;16.67;;;8.50;;
33104;SDS011;19476;51.448;6.674;2022-12-18T14:16:13;15.60;;;8.43;;
33104;SDS011;19476;51.448;6.674;2022-12-18T14:18:44;17.90;;;9.23;;
33104;SDS011;19476;51.448;6.674;2022-12-18T14:21:23;17.75;;;9.02;;
33104;SDS011;19476;51.448;6.674;2022-12-18T14:26:41;12.48;;;6.53;;
33104;SDS011;19476;51.448;6.674;2022-12-18T14:29:21;16.60;;;8.40;;
33104;SDS011;19476;51.448;6.674;2022-12-18T14:32:06;17.38;;;8.75;;
33104;SDS011;19476;51.448;6.674;2022-12-18T14:34:34;18.63;;;9.63;;
33104;SDS011;19476;51.448;6.674;2022-12-18T14:37:00;17.13;;;9.10;;
33104;SDS011;19476;51.448;6.674;2022-12-18T14:39:26;17.63;;;9.13;;
33104;SDS011;19476;51.448;6.674;2022-12-18T14:41:52;16.20;;;8.90;;
33104;SDS011;19476;51.448;6.674;2022-12-18T14:44:18;16.30;;;8.73;;
33104;SDS011;19476;51.448;6.674;2022-12-18T14:46:44;18.75;;;10.45;;
33104;SDS011;19476;51.448;6.674;2022-12-18T14:51:57;18.30;;;9.40;;
33104;SDS011;19476;51.448;6.674;2022-12-18T14:54:25;17.58;;;9.00;;
33104;SDS011;19476;51.448;6.674;2022-12-18T14:57:02;18.55;;;9.65;;
33104;SDS011;19476;51.448;6.674;2022-12-18T14:59:41;18.20;;;9.20;;
33104;SDS011;19476;51.448;6.674;2022-12-18T15:02:15;19.92;;;9.82;;
33104;SDS011;19476;51.448;6.674;2022-12-18T15:04:46;20.08;;;10.07;;
33104;SDS011;19476;51.448;6.674;2022-12-18T15:07:23;18.50;;;9.65;;
33104;SDS011;19476;51.448;6.674;2022-12-18T15:12:33;15.48;;;8.65;;
33104;SDS011;19476;51.448;6.674;2022-12-18T15:15:01;18.67;;;9.23;;
33104;SDS011;19476;51.448;6.674;2022-12-18T15:17:28;19.02;;;9.45;;
33104;SDS011;19476;51.448;6.674;2022-12-18T15:19:58;18.58;;;9.23;;
33104;SDS011;19476;51.448;6.674;2022-12-18T15:22:27;20.35;;;10.80;;
33104;SDS011;19476;51.448;6.674;2022-12-18T15:24:55;17.17;;;9.57;;
33104;SDS011;19476;51.448;6.674;2022-12-18T15:27:35;19.13;;;10.60;;
33104;SDS011;19476;51.448;6.674;2022-12-18T15:32:38;21.75;;;10.75;;
33104;SDS011;19476;51.448;6.674;2022-12-18T15:37:36;20.67;;;10.57;;
33104;SDS011;19476;51.448;6.674;2022-12-18T15:40:06;20.85;;;11.50;;
33104;SDS011;19476;51.448;6.674;2022-12-18T15:42:33;22.45;;;11.13;;
33104;SDS011;19476;51.448;6.674;2022-12-18T15:45:18;23.88;;;12.30;;
33104;SDS011;19476;51.448;6.674;2022-12-18T15:47:44;22.15;;;11.55;;
33104;SDS011;19476;51.448;6.674;2022-12-18T15:50:10;20.40;;;11.73;;
33104;SDS011;19476;51.448;6.674;2022-12-18T15:52:40;21.13;;;10.90;;
33104;SDS011;19476;51.448;6.674;2022-12-18T15:55:18;23.17;;;11.77;;
33104;SDS011;19476;51.448;6.674;2022-12-18T15:58:05;20.00;;;11.13;;
33104;SDS011;19476;51.448;6.674;2022-12-18T16:00:35;22.70;;;12.05;;
33104;SDS011;19476;51.448;6.674;2022-12-18T16:03:03;23.42;;;11.80;;
33104;SDS011;19476;51.448;6.674;2022-12-18T16:05:29;26.70;;;12.85;;
33104;SDS011;19476;51.448;6.674;2022-12-18T16:07:56;23.13;;;12.13;;
33104;SDS011;19476;51.448;6.674;2022-12-18T16:10:23;22.63;;;11.85;;
33104;SDS011;19476;51.448;6.674;2022-12-18T16:12:50;22.63;;;10.88;;
33104;SDS011;19476;51.448;6.674;2022-12-18T16:15:16;22.98;;;12.43;;
33104;SDS011;19476;51.448;6.674;2022-12-18T16:17:42;25.10;;;14.25;;
33104;SDS011;19476;51.448;6.674;2022-12-18T16:20:19;25.27;;;12.70;;
33104;SDS011;19476;51.448;6.674;2022-12-18T16:22:47;24.70;;;13.15;;
33104;SDS011;19476;51.448;6.674;2022-12-18T16:27:46;23.88;;;13.30;;
33104;SDS011;19476;51.448;6.674;2022-12-18T16:30:16;28.27;;;13.77;;
33104;SDS011;19476;51.448;6.674;2022-12-18T16:32:43;27.48;;;13.48;;
33104;SDS011;19476;51.448;6.674;2022-12-18T16:35:10;24.40;;;13.00;;
33104;SDS011;19476;51.448;6.674;2022-12-18T16:37:37;24.27;;;13.70;;
33104;SDS011;19476;51.448;6.674;2022-12-18T16:40:03;27.75;;;13.95;;
33104;SDS011;19476;51.448;6.674;2022-12-18T16:42:30;25.63;;;13.75;;
33104;SDS011;19476;51.448;6.674;2022-12-18T16:44:56;23.73;;;13.02;;
33104;SDS011;19476;51.448;6.674;2022-12-18T16:47:22;28.95;;;13.48;;
33104;SDS011;19476;51.448;6.674;2022-12-18T16:49:48;27.98;;;13.65;;
33104;SDS011;19476;51.448;6.674;2022-12-18T16:52:16;24.77;;;12.55;;
33104;SDS011;19476;51.448;6.674;2022-12-18T16:54:43;22.58;;;12.52;;
33104;SDS011;19476;51.448;6.674;2022-12-18T16:57:10;26.15;;;13.20;;
33104;SDS011;19476;51.448;6.674;2022-12-18T16:59:38;26.25;;;14.35;;
33104;SDS011;19476;51.448;6.674;2022-12-18T17:02:05;27.50;;;14.32;;
33104;SDS011;19476;51.448;6.674;2022-12-18T17:04:31;29.55;;;15.18;;
33104;SDS011;19476;51.448;6.674;2022-12-18T17:06:58;27.73;;;13.90;;
33104;SDS011;19476;51.448;6.674;2022-12-18T17:09:23;27.85;;;13.65;;
33104;SDS011;19476;51.448;6.674;2022-12-18T17:11:49;25.95;;;14.02;;
33104;SDS011;19476;51.448;6.674;2022-12-18T17:14:16;27.38;;;13.63;;
33104;SDS011;19476;51.448;6.674;2022-12-18T17:16:44;28.10;;;14.90;;
33104;SDS011;19476;51.448;6.674;2022-12-18T17:19:11;27.13;;;14.00;;
33104;SDS011;19476;51.448;6.674;2022-12-18T17:21:37;30.90;;;15.50;;
33104;SDS011;19476;51.448;6.674;2022-12-18T17:24:03;27.73;;;14.25;;
33104;SDS011;19476;51.448;6.674;2022-12-18T17:26:29;34.53;;;15.70;;
33104;SDS011;19476;51.448;6.674;2022-12-18T17:28:55;29.60;;;15.18;;
33104;SDS011;19476;51.448;6.674;2022-12-18T17:31:23;33.17;;;14.43;;
33104;SDS011;19476;51.448;6.674;2022-12-18T17:33:49;29.42;;;14.55;;
33104;SDS011;19476;51.448;6.674;2022-12-18T17:36:16;27.15;;;13.25;;
33104;SDS011;19476;51.448;6.674;2022-12-18T17:38:43;27.58;;;14.40;;
33104;SDS011;19476;51.448;6.674;2022-12-18T17:41:24;28.02;;;14.23;;
33104;SDS011;19476;51.448;6.674;2022-12-18T17:43:55;32.08;;;15.27;;
33104;SDS011;19476;51.448;6.674;2022-12-18T17:46:23;32.13;;;16.45;;